sensor_id;sensor_type;location;lat;lon;timestamp;pressure;altitude;pressure_sealevel;temperature;humidity
63691;BME280;49837;57.280;27.070;2023-04-26T00:00:13;99026.97;;;7.33;78.83
63691;BME280;49837;57.280;27.070;2023-04-26T00:01:13;99029.62;;;7.35;78.86
63691;BME280;49837;57.280;27.070;2023-04-26T00:02:13;99029.32;;;7.35;78.74
63691;BME280;49837;57.280;27.070;2023-04-26T00:03:14;99022.84;;;7.35;78.42
63691;BME280;49837;57.280;27.070;2023-04-26T00:04:14;99025.7;;;7.34;78.52
63691;BME280;49837;57.280;27.070;2023-04-26T00:05:15;99021.16;;;7.33;78.58
63691;BME280;49837;57.280;27.070;2023-04-26T00:06:15;99024.22;;;7.31;78.51
63691;BME280;49837;57.280;27.070;2023-04-26T00:07:16;99019.31;;;7.31;78.2
63691;BME280;49837;57.280;27.070;2023-04-26T00:08:16;99024.52;;;7.27;78.62
63691;BME280;49837;57.280;27.070;2023-04-26T00:09:16;99019.88;;;7.24;78.37
63691;BME280;49837;57.280;27.070;2023-04-26T00:10:16;99018.56;;;7.22;78.83
63691;BME280;49837;57.280;27.070;2023-04-26T00:11:17;99020.59;;;7.19;78.87
63691;BME280;49837;57.280;27.070;2023-04-26T00:12:17;99017.61;;;7.13;79.24
63691;BME280;49837;57.280;27.070;2023-04-26T00:13:17;99025.34;;;7.06;79.57
63691;BME280;49837;57.280;27.070;2023-04-26T00:14:18;99023.34;;;7.08;79.31
63691;BME280;49837;57.280;27.070;2023-04-26T00:15:18;99021.72;;;7.09;79.24
63691;BME280;49837;57.280;27.070;2023-04-26T00:16:19;99016.79;;;6.91;79.91
63691;BME280;49837;57.280;27.070;2023-04-26T00:17:19;99021.66;;;6.81;80.56
63691;BME280;49837;57.280;27.070;2023-04-26T00:18:20;99014.27;;;6.74;80.9
63691;BME280;49837;57.280;27.070;2023-04-26T00:19:20;99015.42;;;6.63;81.32
63691;BME280;49837;57.280;27.070;2023-04-26T00:20:20;99014.16;;;6.59;81.33
63691;BME280;49837;57.280;27.070;2023-04-26T00:21:21;99015.22;;;6.55;81.65
63691;BME280;49837;57.280;27.070;2023-04-26T00:22:21;99010.94;;;6.48;81.51
63691;BME280;49837;57.280;27.070;2023-04-26T00:23:21;99014.24;;;6.46;81.23
63691;BME280;49837;57.280;27.070;2023-04-26T00:24:22;99012.26;;;6.48;81.51
63691;BME280;49837;57.280;27.070;2023-04-26T00:25:22;99010.89;;;6.39;81.69
63691;BME280;49837;57.280;27.070;2023-04-26T00:26:23;99016.89;;;6.16;82.56
63691;BME280;49837;57.280;27.070;2023-04-26T00:27:23;99016.11;;;6.09;82.8
63691;BME280;49837;57.280;27.070;2023-04-26T00:28:23;99014.81;;;6.08;83.23
63691;BME280;49837;57.280;27.070;2023-04-26T00:29:24;99017.14;;;6.08;83.51
63691;BME280;49837;57.280;27.070;2023-04-26T00:30:24;99013.74;;;6.03;84.11
63691;BME280;49837;57.280;27.070;2023-04-26T00:31:25;99015.31;;;5.98;84.52
63691;BME280;49837;57.280;27.070;2023-04-26T00:32:25;99012.3;;;5.96;84.69
63691;BME280;49837;57.280;27.070;2023-04-26T00:33:25;99015.62;;;6.01;84.62
63691;BME280;49837;57.280;27.070;2023-04-26T00:34:34;99016.03;;;6.06;84.35
63691;BME280;49837;57.280;27.070;2023-04-26T00:35:27;99013.08;;;6.03;84.23
63691;BME280;49837;57.280;27.070;2023-04-26T00:36:27;99014.69;;;6.0;84.3
63691;BME280;49837;57.280;27.070;2023-04-26T00:37:28;99015.88;;;5.99;84.39
63691;BME280;49837;57.280;27.070;2023-04-26T00:38:28;99016.73;;;6.07;83.96
63691;BME280;49837;57.280;27.070;2023-04-26T00:39:29;99018.77;;;6.12;83.72
63691;BME280;49837;57.280;27.070;2023-04-26T00:40:29;99019.05;;;6.16;84.02
63691;BME280;49837;57.280;27.070;2023-04-26T00:41:30;99018.18;;;6.14;84.17
63691;BME280;49837;57.280;27.070;2023-04-26T00:42:29;99018.27;;;6.11;83.97
63691;BME280;49837;57.280;27.070;2023-04-26T00:43:30;99015.15;;;6.08;84.13
63691;BME280;49837;57.280;27.070;2023-04-26T00:44:30;99010.96;;;6.04;84.19
63691;BME280;49837;57.280;27.070;2023-04-26T00:45:31;99017.7;;;6.0;84.21
63691;BME280;49837;57.280;27.070;2023-04-26T00:46:31;99014.69;;;5.98;84.32
63691;BME280;49837;57.280;27.070;2023-04-26T00:47:32;99015.88;;;5.97;84.39
63691;BME280;49837;57.280;27.070;2023-04-26T00:48:32;99013.05;;;5.94;84.35
63691;BME280;49837;57.280;27.070;2023-04-26T00:49:32;99012.25;;;5.93;84.63
63691;BME280;49837;57.280;27.070;2023-04-26T00:50:33;99016.75;;;5.92;84.88
63691;BME280;49837;57.280;27.070;2023-04-26T00:51:34;99014.61;;;5.86;85.14
63691;BME280;49837;57.280;27.070;2023-04-26T00:52:34;99012.88;;;5.76;85.33
63691;BME280;49837;57.280;27.070;2023-04-26T00:53:34;99013.77;;;5.66;85.54
63691;BME280;49837;57.280;27.070;2023-04-26T00:54:34;99010.27;;;5.62;85.46
63691;BME280;49837;57.280;27.070;2023-04-26T00:55:34;99007.97;;;5.66;85.33
63691;BME280;49837;57.280;27.070;2023-04-26T00:56:36;99009.11;;;5.7;85.47
63691;BME280;49837;57.280;27.070;2023-04-26T00:57:35;99006.55;;;5.66;85.59
63691;BME280;49837;57.280;27.070;2023-04-26T00:58:36;99006.28;;;5.67;85.5
63691;BME280;49837;57.280;27.070;2023-04-26T00:59:36;99003.51;;;5.6;85.39
63691;BME280;49837;57.280;27.070;2023-04-26T01:00:36;99004.0;;;5.45;86.01
63691;BME280;49837;57.280;27.070;2023-04-26T01:01:37;99002.73;;;5.44;86.04
63691;BME280;49837;57.280;27.070;2023-04-26T01:02:37;99005.56;;;5.43;86.08
63691;BME280;49837;57.280;27.070;2023-04-26T01:03:37;99002.2;;;5.39;86.28
63691;BME280;49837;57.280;27.070;2023-04-26T01:04:38;99002.4;;;5.38;86.2
63691;BME280;49837;57.280;27.070;2023-04-26T01:05:38;99004.07;;;5.4;85.93
63691;BME280;49837;57.280;27.070;2023-04-26T01:06:39;99004.48;;;5.42;85.97
63691;BME280;49837;57.280;27.070;2023-04-26T01:07:40;99003.23;;;5.46;85.99
63691;BME280;49837;57.280;27.070;2023-04-26T01:08:39;99000.09;;;5.46;85.72
63691;BME280;49837;57.280;27.070;2023-04-26T01:09:39;99000.16;;;5.46;85.58
63691;BME280;49837;57.280;27.070;2023-04-26T01:10:40;99001.56;;;5.47;85.56
63691;BME280;49837;57.280;27.070;2023-04-26T01:11:41;98999.17;;;5.46;85.88
63691;BME280;49837;57.280;27.070;2023-04-26T01:12:41;99000.34;;;5.42;86.08
63691;BME280;49837;57.280;27.070;2023-04-26T01:13:41;98998.73;;;5.38;86.17
63691;BME280;49837;57.280;27.070;2023-04-26T01:14:41;99000.02;;;5.37;86.26
63691;BME280;49837;57.280;27.070;2023-04-26T01:15:45;98998.27;;;5.37;86.35
63691;BME280;49837;57.280;27.070;2023-04-26T01:16:43;98998.57;;;5.39;86.5
63691;BME280;49837;57.280;27.070;2023-04-26T01:17:45;98998.06;;;5.41;86.38
63691;BME280;49837;57.280;27.070;2023-04-26T01:18:43;98996.86;;;5.41;86.4
63691;BME280;49837;57.280;27.070;2023-04-26T01:19:48;98995.62;;;5.38;86.59
63691;BME280;49837;57.280;27.070;2023-04-26T01:20:47;98994.59;;;5.36;86.65
63691;BME280;49837;57.280;27.070;2023-04-26T01:21:48;98994.2;;;5.32;86.68
63691;BME280;49837;57.280;27.070;2023-04-26T01:22:48;98993.8;;;5.26;86.95
63691;BME280;49837;57.280;27.070;2023-04-26T01:23:49;98995.2;;;5.22;87.09
63691;BME280;49837;57.280;27.070;2023-04-26T01:24:50;98993.16;;;5.24;86.76
63691;BME280;49837;57.280;27.070;2023-04-26T01:25:49;98993.09;;;5.24;86.49
63691;BME280;49837;57.280;27.070;2023-04-26T01:26:49;98989.39;;;5.19;86.42
63691;BME280;49837;57.280;27.070;2023-04-26T01:27:50;98996.47;;;5.15;86.55
63691;BME280;49837;57.280;27.070;2023-04-26T01:28:50;98992.23;;;5.12;86.79
63691;BME280;49837;57.280;27.070;2023-04-26T01:29:50;98989.94;;;5.12;86.92
63691;BME280;49837;57.280;27.070;2023-04-26T01:30:51;98989.75;;;5.12;86.89
63691;BME280;49837;57.280;27.070;2023-04-26T01:31:51;98988.92;;;5.12;86.79
63691;BME280;49837;57.280;27.070;2023-04-26T01:32:51;98984.8;;;5.03;86.7
63691;BME280;49837;57.280;27.070;2023-04-26T01:33:52;98986.88;;;5.03;86.22
63691;BME280;49837;57.280;27.070;2023-04-26T01:34:52;98986.17;;;5.01;86.8
63691;BME280;49837;57.280;27.070;2023-04-26T01:35:52;98985.95;;;4.99;87.23
63691;BME280;49837;57.280;27.070;2023-04-26T01:36:53;98987.11;;;5.03;87.46
63691;BME280;49837;57.280;27.070;2023-04-26T01:37:53;98983.3;;;4.97;88.2
63691;BME280;49837;57.280;27.070;2023-04-26T01:38:54;98981.41;;;4.93;88.7
63691;BME280;49837;57.280;27.070;2023-04-26T01:39:54;98981.31;;;4.87;88.91
63691;BME280;49837;57.280;27.070;2023-04-26T01:40:54;98982.88;;;4.81;89.03
63691;BME280;49837;57.280;27.070;2023-04-26T01:41:56;98981.05;;;4.78;89.21
63691;BME280;49837;57.280;27.070;2023-04-26T01:42:55;98983.25;;;4.82;89.25
63691;BME280;49837;57.280;27.070;2023-04-26T01:43:55;98986.7;;;4.87;89.23
63691;BME280;49837;57.280;27.070;2023-04-26T01:44:56;98979.59;;;4.86;89.03
63691;BME280;49837;57.280;27.070;2023-04-26T01:45:56;98981.2;;;4.82;89.03
63691;BME280;49837;57.280;27.070;2023-04-26T01:46:57;98978.85;;;4.76;89.18
63691;BME280;49837;57.280;27.070;2023-04-26T01:47:57;98978.67;;;4.74;89.29
63691;BME280;49837;57.280;27.070;2023-04-26T01:48:57;98976.55;;;4.73;89.31
63691;BME280;49837;57.280;27.070;2023-04-26T01:49:58;98975.64;;;4.8;89.1
63691;BME280;49837;57.280;27.070;2023-04-26T01:50:58;98980.89;;;4.84;88.77
63691;BME280;49837;57.280;27.070;2023-04-26T01:51:59;98977.88;;;4.83;88.75
63691;BME280;49837;57.280;27.070;2023-04-26T01:52:59;98978.94;;;4.8;88.65
63691;BME280;49837;57.280;27.070;2023-04-26T01:53:59;98979.23;;;4.78;88.67
63691;BME280;49837;57.280;27.070;2023-04-26T01:55:00;98976.84;;;4.78;88.94
63691;BME280;49837;57.280;27.070;2023-04-26T01:56:00;98978.41;;;4.75;88.99
63691;BME280;49837;57.280;27.070;2023-04-26T01:57:00;98975.98;;;4.72;89.15
63691;BME280;49837;57.280;27.070;2023-04-26T01:58:01;98978.27;;;4.74;89.18
63691;BME280;49837;57.280;27.070;2023-04-26T01:59:01;98980.18;;;4.74;89.43
63691;BME280;49837;57.280;27.070;2023-04-26T02:00:01;98978.38;;;4.76;89.31
63691;BME280;49837;57.280;27.070;2023-04-26T02:01:07;98976.73;;;4.75;89.02
63691;BME280;49837;57.280;27.070;2023-04-26T02:02:05;98974.75;;;4.75;88.86
63691;BME280;49837;57.280;27.070;2023-04-26T02:03:05;98976.98;;;4.75;88.73
63691;BME280;49837;57.280;27.070;2023-04-26T02:04:06;98972.8;;;4.75;89.08
63691;BME280;49837;57.280;27.070;2023-04-26T02:05:09;98971.44;;;4.79;89.21
63691;BME280;49837;57.280;27.070;2023-04-26T02:06:07;98971.34;;;4.83;89.24
63691;BME280;49837;57.280;27.070;2023-04-26T02:07:07;98977.12;;;4.89;89.0
63691;BME280;49837;57.280;27.070;2023-04-26T02:08:08;98971.39;;;4.9;89.01
63691;BME280;49837;57.280;27.070;2023-04-26T02:09:08;98968.95;;;4.83;88.61
63691;BME280;49837;57.280;27.070;2023-04-26T02:10:09;98967.3;;;4.73;88.49
63691;BME280;49837;57.280;27.070;2023-04-26T02:11:09;98965.73;;;4.73;88.41
63691;BME280;49837;57.280;27.070;2023-04-26T02:12:09;98969.86;;;4.76;88.53
63691;BME280;49837;57.280;27.070;2023-04-26T02:13:09;98967.69;;;4.77;88.62
63691;BME280;49837;57.280;27.070;2023-04-26T02:14:10;98964.73;;;4.8;88.68
63691;BME280;49837;57.280;27.070;2023-04-26T02:15:10;98960.03;;;4.79;88.77
63691;BME280;49837;57.280;27.070;2023-04-26T02:16:11;98960.94;;;4.76;88.8
63691;BME280;49837;57.280;27.070;2023-04-26T02:17:11;98963.61;;;4.71;88.99
63691;BME280;49837;57.280;27.070;2023-04-26T02:18:12;98961.56;;;4.67;89.04
63691;BME280;49837;57.280;27.070;2023-04-26T02:19:12;98954.27;;;4.63;89.22
63691;BME280;49837;57.280;27.070;2023-04-26T02:20:12;98955.05;;;4.58;89.34
63691;BME280;49837;57.280;27.070;2023-04-26T02:21:15;98956.98;;;4.56;89.28
63691;BME280;49837;57.280;27.070;2023-04-26T02:22:13;98959.11;;;4.54;89.14
63691;BME280;49837;57.280;27.070;2023-04-26T02:23:14;98959.16;;;4.51;89.14
63691;BME280;49837;57.280;27.070;2023-04-26T02:24:14;98957.91;;;4.52;89.24
63691;BME280;49837;57.280;27.070;2023-04-26T02:25:14;98956.95;;;4.51;89.55
63691;BME280;49837;57.280;27.070;2023-04-26T02:26:15;98952.7;;;4.45;89.96
63691;BME280;49837;57.280;27.070;2023-04-26T02:27:15;98950.41;;;4.52;89.99
63691;BME280;49837;57.280;27.070;2023-04-26T02:28:15;98953.08;;;4.39;89.94
63691;BME280;49837;57.280;27.070;2023-04-26T02:29:16;98951.27;;;4.26;90.02
63691;BME280;49837;57.280;27.070;2023-04-26T02:30:16;98953.11;;;4.28;90.03
63691;BME280;49837;57.280;27.070;2023-04-26T02:31:16;98953.2;;;4.31;90.24
63691;BME280;49837;57.280;27.070;2023-04-26T02:32:17;98952.55;;;4.35;90.24
63691;BME280;49837;57.280;27.070;2023-04-26T02:33:17;98950.25;;;4.3;90.57
63691;BME280;49837;57.280;27.070;2023-04-26T02:34:18;98952.66;;;4.26;90.57
63691;BME280;49837;57.280;27.070;2023-04-26T02:35:18;98950.09;;;4.2;90.75
63691;BME280;49837;57.280;27.070;2023-04-26T02:36:18;98952.07;;;4.23;90.79
63691;BME280;49837;57.280;27.070;2023-04-26T02:37:19;98949.01;;;4.27;90.68
63691;BME280;49837;57.280;27.070;2023-04-26T02:38:19;98947.45;;;4.27;90.58
63691;BME280;49837;57.280;27.070;2023-04-26T02:39:19;98950.94;;;4.19;90.54
63691;BME280;49837;57.280;27.070;2023-04-26T02:40:20;98949.81;;;4.25;91.13
63691;BME280;49837;57.280;27.070;2023-04-26T02:41:20;98953.12;;;4.27;90.83
63691;BME280;49837;57.280;27.070;2023-04-26T02:42:20;98956.39;;;4.33;90.67
63691;BME280;49837;57.280;27.070;2023-04-26T02:43:21;98959.69;;;4.39;90.68
63691;BME280;49837;57.280;27.070;2023-04-26T02:44:21;98955.55;;;4.43;90.48
63691;BME280;49837;57.280;27.070;2023-04-26T02:45:22;98953.22;;;4.44;90.11
63691;BME280;49837;57.280;27.070;2023-04-26T02:46:22;98951.76;;;4.43;89.89
63691;BME280;49837;57.280;27.070;2023-04-26T02:47:22;98948.92;;;4.44;89.97
63691;BME280;49837;57.280;27.070;2023-04-26T02:48:23;98950.91;;;4.44;89.79
63691;BME280;49837;57.280;27.070;2023-04-26T02:49:23;98948.7;;;4.44;89.62
63691;BME280;49837;57.280;27.070;2023-04-26T02:50:23;98951.0;;;4.47;89.57
63691;BME280;49837;57.280;27.070;2023-04-26T02:51:24;98950.09;;;4.5;89.63
63691;BME280;49837;57.280;27.070;2023-04-26T02:52:24;98947.04;;;4.48;89.92
63691;BME280;49837;57.280;27.070;2023-04-26T02:53:24;98952.89;;;4.44;89.89
63691;BME280;49837;57.280;27.070;2023-04-26T02:54:25;98948.44;;;4.41;89.56
63691;BME280;49837;57.280;27.070;2023-04-26T02:55:25;98951.3;;;4.39;89.69
63691;BME280;49837;57.280;27.070;2023-04-26T02:56:25;98947.98;;;4.38;89.71
63691;BME280;49837;57.280;27.070;2023-04-26T02:57:26;98953.6;;;4.39;89.69
63691;BME280;49837;57.280;27.070;2023-04-26T02:58:26;98951.27;;;4.36;89.67
63691;BME280;49837;57.280;27.070;2023-04-26T02:59:27;98952.33;;;4.34;89.77
63691;BME280;49837;57.280;27.070;2023-04-26T03:00:27;98952.09;;;4.33;89.74
63691;BME280;49837;57.280;27.070;2023-04-26T03:01:27;98951.77;;;4.36;89.68
63691;BME280;49837;57.280;27.070;2023-04-26T03:02:28;98951.23;;;4.31;89.56
63691;BME280;49837;57.280;27.070;2023-04-26T03:03:28;98953.11;;;4.28;89.48
63691;BME280;49837;57.280;27.070;2023-04-26T03:04:32;98957.4;;;4.31;89.49
63691;BME280;49837;57.280;27.070;2023-04-26T03:05:29;98955.73;;;4.29;90.03
63691;BME280;49837;57.280;27.070;2023-04-26T03:06:30;98950.68;;;4.3;90.19
63691;BME280;49837;57.280;27.070;2023-04-26T03:07:30;98948.25;;;4.28;90.45
63691;BME280;49837;57.280;27.070;2023-04-26T03:08:31;98948.44;;;4.23;90.59
63691;BME280;49837;57.280;27.070;2023-04-26T03:09:31;98950.28;;;4.22;90.7
63691;BME280;49837;57.280;27.070;2023-04-26T03:10:31;98953.61;;;4.24;90.36
63691;BME280;49837;57.280;27.070;2023-04-26T03:11:31;98950.21;;;4.22;90.27
63691;BME280;49837;57.280;27.070;2023-04-26T03:12:32;98949.5;;;4.27;90.39
63691;BME280;49837;57.280;27.070;2023-04-26T03:13:32;98949.62;;;4.26;90.24
63691;BME280;49837;57.280;27.070;2023-04-26T03:14:33;98950.98;;;4.24;90.34
63691;BME280;49837;57.280;27.070;2023-04-26T03:15:33;98945.47;;;4.2;90.51
63691;BME280;49837;57.280;27.070;2023-04-26T03:16:40;98945.89;;;4.16;90.7
63691;BME280;49837;57.280;27.070;2023-04-26T03:17:38;98950.44;;;4.22;90.58
63691;BME280;49837;57.280;27.070;2023-04-26T03:18:38;98953.03;;;4.34;90.14
63691;BME280;49837;57.280;27.070;2023-04-26T03:19:39;98954.0;;;4.46;89.67
63691;BME280;49837;57.280;27.070;2023-04-26T03:20:39;98954.44;;;4.56;89.3
63691;BME280;49837;57.280;27.070;2023-04-26T03:21:39;98956.55;;;4.6;89.0
63691;BME280;49837;57.280;27.070;2023-04-26T03:22:39;98953.75;;;4.6;88.86
63691;BME280;49837;57.280;27.070;2023-04-26T03:23:40;98949.59;;;4.57;89.03
63691;BME280;49837;57.280;27.070;2023-04-26T03:24:42;98947.55;;;4.57;89.23
63691;BME280;49837;57.280;27.070;2023-04-26T03:25:41;98949.27;;;4.51;89.53
63691;BME280;49837;57.280;27.070;2023-04-26T03:26:41;98948.17;;;4.45;89.64
63691;BME280;49837;57.280;27.070;2023-04-26T03:27:41;98948.06;;;4.39;89.68
63691;BME280;49837;57.280;27.070;2023-04-26T03:28:42;98943.1;;;4.43;89.96
63691;BME280;49837;57.280;27.070;2023-04-26T03:29:42;98941.42;;;4.48;89.81
63691;BME280;49837;57.280;27.070;2023-04-26T03:30:42;98943.78;;;4.53;89.73
63691;BME280;49837;57.280;27.070;2023-04-26T03:31:43;98943.89;;;4.58;89.72
63691;BME280;49837;57.280;27.070;2023-04-26T03:32:43;98939.33;;;4.59;89.84
63691;BME280;49837;57.280;27.070;2023-04-26T03:33:44;98942.92;;;4.61;90.03
63691;BME280;49837;57.280;27.070;2023-04-26T03:34:44;98947.25;;;4.66;89.85
63691;BME280;49837;57.280;27.070;2023-04-26T03:35:44;98946.11;;;4.72;89.89
63691;BME280;49837;57.280;27.070;2023-04-26T03:36:45;98943.41;;;4.73;89.85
63691;BME280;49837;57.280;27.070;2023-04-26T03:37:45;98944.94;;;4.75;89.87
63691;BME280;49837;57.280;27.070;2023-04-26T03:38:45;98942.59;;;4.74;89.83
63691;BME280;49837;57.280;27.070;2023-04-26T03:39:46;98936.38;;;4.74;89.61
63691;BME280;49837;57.280;27.070;2023-04-26T03:40:46;98937.44;;;4.74;89.55
63691;BME280;49837;57.280;27.070;2023-04-26T03:41:47;98937.11;;;4.75;89.4
63691;BME280;49837;57.280;27.070;2023-04-26T03:42:47;98940.56;;;4.78;89.36
63691;BME280;49837;57.280;27.070;2023-04-26T03:43:47;98937.59;;;4.78;89.47
63691;BME280;49837;57.280;27.070;2023-04-26T03:44:48;98944.18;;;4.89;89.23
63691;BME280;49837;57.280;27.070;2023-04-26T03:45:48;98945.98;;;4.96;88.95
63691;BME280;49837;57.280;27.070;2023-04-26T03:46:48;98948.19;;;5.0;88.81
63691;BME280;49837;57.280;27.070;2023-04-26T03:47:49;98944.28;;;5.04;88.54
63691;BME280;49837;57.280;27.070;2023-04-26T03:48:49;98943.58;;;5.08;88.37
63691;BME280;49837;57.280;27.070;2023-04-26T03:49:49;98947.91;;;5.1;88.2
63691;BME280;49837;57.280;27.070;2023-04-26T03:50:50;98950.75;;;5.09;88.54
63691;BME280;49837;57.280;27.070;2023-04-26T03:51:50;98952.28;;;5.05;88.66
63691;BME280;49837;57.280;27.070;2023-04-26T03:52:50;98957.12;;;5.09;88.67
63691;BME280;49837;57.280;27.070;2023-04-26T03:53:51;98948.51;;;5.16;88.53
63691;BME280;49837;57.280;27.070;2023-04-26T03:54:51;98947.7;;;5.21;88.75
63691;BME280;49837;57.280;27.070;2023-04-26T03:55:52;98949.88;;;5.25;88.8
63691;BME280;49837;57.280;27.070;2023-04-26T03:56:52;98946.55;;;5.27;88.79
63691;BME280;49837;57.280;27.070;2023-04-26T03:57:52;98943.71;;;5.27;88.8
63691;BME280;49837;57.280;27.070;2023-04-26T03:58:53;98940.19;;;5.3;88.7
63691;BME280;49837;57.280;27.070;2023-04-26T03:59:53;98941.59;;;5.39;88.17
63691;BME280;49837;57.280;27.070;2023-04-26T04:00:56;98939.46;;;5.38;87.74
63691;BME280;49837;57.280;27.070;2023-04-26T04:01:54;98936.64;;;5.35;87.83
63691;BME280;49837;57.280;27.070;2023-04-26T04:02:54;98937.62;;;5.39;88.0
63691;BME280;49837;57.280;27.070;2023-04-26T04:03:54;98935.31;;;5.42;88.04
63691;BME280;49837;57.280;27.070;2023-04-26T04:04:55;98937.67;;;5.46;88.14
63691;BME280;49837;57.280;27.070;2023-04-26T04:05:55;98940.91;;;5.51;88.17
63691;BME280;49837;57.280;27.070;2023-04-26T04:06:55;98943.56;;;5.54;88.05
63691;BME280;49837;57.280;27.070;2023-04-26T04:07:56;98946.34;;;5.63;87.79
63691;BME280;49837;57.280;27.070;2023-04-26T04:08:57;98948.09;;;5.69;87.52
63691;BME280;49837;57.280;27.070;2023-04-26T04:09:57;98951.31;;;5.72;87.34
63691;BME280;49837;57.280;27.070;2023-04-26T04:10:57;98949.48;;;5.81;87.1
63691;BME280;49837;57.280;27.070;2023-04-26T04:11:57;98952.59;;;5.9;87.05
63691;BME280;49837;57.280;27.070;2023-04-26T04:12:58;98952.09;;;6.02;86.58
63691;BME280;49837;57.280;27.070;2023-04-26T04:13:58;98950.62;;;6.12;86.12
63691;BME280;49837;57.280;27.070;2023-04-26T04:14:59;98951.22;;;6.15;85.86
63691;BME280;49837;57.280;27.070;2023-04-26T04:15:59;98952.92;;;6.18;85.41
63691;BME280;49837;57.280;27.070;2023-04-26T04:16:59;98950.98;;;6.25;84.83
63691;BME280;49837;57.280;27.070;2023-04-26T04:18:00;98953.58;;;6.37;84.05
63691;BME280;49837;57.280;27.070;2023-04-26T04:19:00;98958.22;;;6.42;83.94
63691;BME280;49837;57.280;27.070;2023-04-26T04:20:01;98952.75;;;6.47;83.81
63691;BME280;49837;57.280;27.070;2023-04-26T04:21:01;98957.95;;;6.48;83.87
63691;BME280;49837;57.280;27.070;2023-04-26T04:22:01;98956.89;;;6.5;83.78
63691;BME280;49837;57.280;27.070;2023-04-26T04:23:01;98959.81;;;6.57;83.18
63691;BME280;49837;57.280;27.070;2023-04-26T04:24:02;98962.14;;;6.66;82.75
63691;BME280;49837;57.280;27.070;2023-04-26T04:25:02;98959.61;;;6.71;82.41
63691;BME280;49837;57.280;27.070;2023-04-26T04:26:03;98955.7;;;6.76;82.18
63691;BME280;49837;57.280;27.070;2023-04-26T04:27:03;98959.02;;;6.79;82.02
63691;BME280;49837;57.280;27.070;2023-04-26T04:28:04;98962.76;;;6.83;82.02
63691;BME280;49837;57.280;27.070;2023-04-26T04:29:04;98966.3;;;6.91;81.97
63691;BME280;49837;57.280;27.070;2023-04-26T04:30:05;98962.45;;;6.92;81.91
63691;BME280;49837;57.280;27.070;2023-04-26T04:31:05;98963.98;;;6.88;82.1
63691;BME280;49837;57.280;27.070;2023-04-26T04:32:05;98964.55;;;6.89;82.33
63691;BME280;49837;57.280;27.070;2023-04-26T04:33:05;98962.98;;;6.91;82.49
63691;BME280;49837;57.280;27.070;2023-04-26T04:34:06;98961.97;;;7.02;81.84
63691;BME280;49837;57.280;27.070;2023-04-26T04:35:06;98963.72;;;7.08;82.01
63691;BME280;49837;57.280;27.070;2023-04-26T04:36:07;98966.05;;;7.08;82.49
63691;BME280;49837;57.280;27.070;2023-04-26T04:37:07;98966.44;;;7.09;82.75
63691;BME280;49837;57.280;27.070;2023-04-26T04:38:07;98964.22;;;7.11;82.51
63691;BME280;49837;57.280;27.070;2023-04-26T04:39:08;98964.67;;;7.12;82.19
63691;BME280;49837;57.280;27.070;2023-04-26T04:40:09;98966.52;;;7.18;81.75
63691;BME280;49837;57.280;27.070;2023-04-26T04:41:08;98967.9;;;7.26;81.32
63691;BME280;49837;57.280;27.070;2023-04-26T04:42:09;98968.05;;;7.29;80.75
63691;BME280;49837;57.280;27.070;2023-04-26T04:43:09;98966.12;;;7.32;80.34
63691;BME280;49837;57.280;27.070;2023-04-26T04:44:09;98968.92;;;7.4;79.78
63691;BME280;49837;57.280;27.070;2023-04-26T04:45:10;98968.91;;;7.54;79.63
63691;BME280;49837;57.280;27.070;2023-04-26T04:46:10;98970.64;;;7.61;78.99
63691;BME280;49837;57.280;27.070;2023-04-26T04:47:11;98972.14;;;7.7;78.92
63691;BME280;49837;57.280;27.070;2023-04-26T04:48:11;98972.41;;;7.76;78.82
63691;BME280;49837;57.280;27.070;2023-04-26T04:49:11;98974.56;;;7.78;78.78
63691;BME280;49837;57.280;27.070;2023-04-26T04:50:12;98972.8;;;7.85;78.56
63691;BME280;49837;57.280;27.070;2023-04-26T04:51:12;98974.99;;;7.85;77.97
63691;BME280;49837;57.280;27.070;2023-04-26T04:52:12;98977.41;;;7.94;78.27
63691;BME280;49837;57.280;27.070;2023-04-26T04:53:13;98977.02;;;7.99;77.7
63691;BME280;49837;57.280;27.070;2023-04-26T04:54:15;98975.38;;;8.01;77.38
63691;BME280;49837;57.280;27.070;2023-04-26T04:55:14;98975.34;;;8.02;77.57
63691;BME280;49837;57.280;27.070;2023-04-26T04:56:14;98976.44;;;8.14;77.35
63691;BME280;49837;57.280;27.070;2023-04-26T04:57:14;98979.48;;;8.17;77.62
63691;BME280;49837;57.280;27.070;2023-04-26T04:58:15;98979.3;;;8.17;78.13
63691;BME280;49837;57.280;27.070;2023-04-26T04:59:15;98974.73;;;8.22;78.1
63691;BME280;49837;57.280;27.070;2023-04-26T05:00:16;98972.37;;;8.28;77.67
63691;BME280;49837;57.280;27.070;2023-04-26T05:01:16;98971.23;;;8.32;78.07
63691;BME280;49837;57.280;27.070;2023-04-26T05:02:16;98973.58;;;8.4;77.98
63691;BME280;49837;57.280;27.070;2023-04-26T05:03:17;98975.67;;;8.5;77.76
63691;BME280;49837;57.280;27.070;2023-04-26T05:04:17;98975.69;;;8.53;76.79
63691;BME280;49837;57.280;27.070;2023-04-26T05:05:18;98975.78;;;8.57;76.1
63691;BME280;49837;57.280;27.070;2023-04-26T05:06:19;98974.25;;;8.61;76.09
63691;BME280;49837;57.280;27.070;2023-04-26T05:07:18;98973.3;;;8.69;75.85
63691;BME280;49837;57.280;27.070;2023-04-26T05:08:19;98974.11;;;8.72;75.73
63691;BME280;49837;57.280;27.070;2023-04-26T05:09:20;98969.77;;;8.74;76.33
63691;BME280;49837;57.280;27.070;2023-04-26T05:10:19;98968.09;;;8.8;76.26
63691;BME280;49837;57.280;27.070;2023-04-26T05:11:20;98967.31;;;8.85;76.37
63691;BME280;49837;57.280;27.070;2023-04-26T05:12:20;98967.05;;;8.85;76.35
63691;BME280;49837;57.280;27.070;2023-04-26T05:13:21;98968.89;;;8.83;76.33
63691;BME280;49837;57.280;27.070;2023-04-26T05:14:21;98970.22;;;8.87;76.23
63691;BME280;49837;57.280;27.070;2023-04-26T05:15:21;98971.02;;;8.98;76.48
63691;BME280;49837;57.280;27.070;2023-04-26T05:16:22;98971.84;;;9.1;76.43
63691;BME280;49837;57.280;27.070;2023-04-26T05:17:22;98971.36;;;9.15;76.07
63691;BME280;49837;57.280;27.070;2023-04-26T05:18:23;98972.73;;;9.28;75.79
63691;BME280;49837;57.280;27.070;2023-04-26T05:19:23;98973.64;;;9.35;75.39
63691;BME280;49837;57.280;27.070;2023-04-26T05:20:24;98978.59;;;9.37;75.58